sensor_id;sensor_type;location;lat;lon;timestamp;temperature;humidity
40756;DHT22;26461;45.630;9.418;2022-10-17T00:02:54;18.10;99.90
40756;DHT22;26461;45.630;9.418;2022-10-17T00:06:12;18.10;99.90
40756;DHT22;26461;45.630;9.418;2022-10-17T00:09:21;18.10;99.90
40756;DHT22;26461;45.630;9.418;2022-10-17T00:12:32;18.00;99.90
40756;DHT22;26461;45.630;9.418;2022-10-17T00:15:43;17.90;99.90
40756;DHT22;26461;45.630;9.418;2022-10-17T00:18:54;17.90;99.90
40756;DHT22;26461;45.630;9.418;2022-10-17T00:22:04;17.80;99.90
40756;DHT22;26461;45.630;9.418;2022-10-17T00:25:14;17.80;99.90
40756;DHT22;26461;45.630;9.418;2022-10-17T00:28:24;17.80;99.90
40756;DHT22;26461;45.630;9.418;2022-10-17T00:31:33;17.80;99.90
40756;DHT22;26461;45.630;9.418;2022-10-17T00:34:45;17.80;99.90
40756;DHT22;26461;45.630;9.418;2022-10-17T00:37:55;17.80;99.90
40756;DHT22;26461;45.630;9.418;2022-10-17T00:41:06;17.80;99.90
40756;DHT22;26461;45.630;9.418;2022-10-17T00:47:39;17.80;99.90
40756;DHT22;26461;45.630;9.418;2022-10-17T00:50:51;17.80;99.90
40756;DHT22;26461;45.630;9.418;2022-10-17T00:54:03;17.80;99.90
40756;DHT22;26461;45.630;9.418;2022-10-17T00:57:14;17.80;99.90
40756;DHT22;26461;45.630;9.418;2022-10-17T01:00:27;17.80;99.90
40756;DHT22;26461;45.630;9.418;2022-10-17T01:03:37;17.80;99.90
40756;DHT22;26461;45.630;9.418;2022-10-17T01:06:47;17.80;99.90
40756;DHT22;26461;45.630;9.418;2022-10-17T01:09:57;17.80;99.90
40756;DHT22;26461;45.630;9.418;2022-10-17T01:16:49;17.80;99.90
40756;DHT22;26461;45.630;9.418;2022-10-17T01:33:59;17.80;99.90
40756;DHT22;26461;45.630;9.418;2022-10-17T01:37:18;17.80;99.90
40756;DHT22;26461;45.630;9.418;2022-10-17T01:40:45;17.80;99.90
40756;DHT22;26461;45.630;9.418;2022-10-17T01:44:03;17.80;99.90
40756;DHT22;26461;45.630;9.418;2022-10-17T01:47:16;17.80;99.90
40756;DHT22;26461;45.630;9.418;2022-10-17T01:54:32;17.80;99.90
40756;DHT22;26461;45.630;9.418;2022-10-17T01:57:54;17.80;99.90
40756;DHT22;26461;45.630;9.418;2022-10-17T02:01:07;17.80;99.90
40756;DHT22;26461;45.630;9.418;2022-10-17T02:04:14;17.80;99.90
40756;DHT22;26461;45.630;9.418;2022-10-17T02:07:25;17.80;99.90
40756;DHT22;26461;45.630;9.418;2022-10-17T02:10:36;17.80;99.90
40756;DHT22;26461;45.630;9.418;2022-10-17T02:14:17;17.80;99.90
40756;DHT22;26461;45.630;9.418;2022-10-17T02:21:27;17.80;99.90
40756;DHT22;26461;45.630;9.418;2022-10-17T02:24:44;17.70;99.90
40756;DHT22;26461;45.630;9.418;2022-10-17T02:28:00;17.70;99.90
40756;DHT22;26461;45.630;9.418;2022-10-17T02:31:53;17.70;99.90
40756;DHT22;26461;45.630;9.418;2022-10-17T02:35:06;17.60;99.90
40756;DHT22;26461;45.630;9.418;2022-10-17T02:38:20;17.60;99.90
40756;DHT22;26461;45.630;9.418;2022-10-17T02:41:30;17.60;99.90
40756;DHT22;26461;45.630;9.418;2022-10-17T02:44:43;17.50;99.90
40756;DHT22;26461;45.630;9.418;2022-10-17T02:54:51;17.50;99.90
40756;DHT22;26461;45.630;9.418;2022-10-17T02:58:06;17.50;99.90
40756;DHT22;26461;45.630;9.418;2022-10-17T03:01:18;17.50;99.90
40756;DHT22;26461;45.630;9.418;2022-10-17T03:04:28;17.40;99.90
40756;DHT22;26461;45.630;9.418;2022-10-17T03:07:33;17.40;99.90
40756;DHT22;26461;45.630;9.418;2022-10-17T03:10:43;17.30;99.90
40756;DHT22;26461;45.630;9.418;2022-10-17T03:13:53;17.30;99.90
40756;DHT22;26461;45.630;9.418;2022-10-17T03:16:59;17.30;99.90
40756;DHT22;26461;45.630;9.418;2022-10-17T03:20:11;17.30;99.90
40756;DHT22;26461;45.630;9.418;2022-10-17T03:23:22;17.20;99.90
40756;DHT22;26461;45.630;9.418;2022-10-17T03:26:33;17.20;99.90
40756;DHT22;26461;45.630;9.418;2022-10-17T03:29:39;17.20;99.90
40756;DHT22;26461;45.630;9.418;2022-10-17T03:32:51;17.20;99.90
40756;DHT22;26461;45.630;9.418;2022-10-17T03:36:06;17.20;99.90
40756;DHT22;26461;45.630;9.418;2022-10-17T03:39:17;17.20;99.90
40756;DHT22;26461;45.630;9.418;2022-10-17T03:42:27;17.20;99.90
40756;DHT22;26461;45.630;9.418;2022-10-17T03:45:37;17.20;99.90
40756;DHT22;26461;45.630;9.418;2022-10-17T03:48:47;17.10;99.90
40756;DHT22;26461;45.630;9.418;2022-10-17T03:51:57;17.10;99.90
40756;DHT22;26461;45.630;9.418;2022-10-17T03:55:07;17.10;99.90
40756;DHT22;26461;45.630;9.418;2022-10-17T03:58:18;17.10;99.90
40756;DHT22;26461;45.630;9.418;2022-10-17T04:01:31;17.10;99.90
40756;DHT22;26461;45.630;9.418;2022-10-17T04:04:41;17.00;99.90
40756;DHT22;26461;45.630;9.418;2022-10-17T04:07:46;17.00;99.90
40756;DHT22;26461;45.630;9.418;2022-10-17T04:11:00;17.00;99.90
40756;DHT22;26461;45.630;9.418;2022-10-17T04:14:11;16.90;99.90
40756;DHT22;26461;45.630;9.418;2022-10-17T04:17:21;16.90;99.90
40756;DHT22;26461;45.630;9.418;2022-10-17T04:20:31;16.90;99.90
40756;DHT22;26461;45.630;9.418;2022-10-17T04:23:43;16.90;99.90
40756;DHT22;26461;45.630;9.418;2022-10-17T04:27:07;16.90;99.90
40756;DHT22;26461;45.630;9.418;2022-10-17T04:30:21;16.90;99.90
40756;DHT22;26461;45.630;9.418;2022-10-17T04:33:31;16.90;99.90
40756;DHT22;26461;45.630;9.418;2022-10-17T04:36:42;16.90;99.90
40756;DHT22;26461;45.630;9.418;2022-10-17T04:39:52;16.90;99.90
40756;DHT22;26461;45.630;9.418;2022-10-17T04:43:02;16.80;99.90
40756;DHT22;26461;45.630;9.418;2022-10-17T04:46:14;16.80;99.90
40756;DHT22;26461;45.630;9.418;2022-10-17T04:49:27;16.80;99.90
40756;DHT22;26461;45.630;9.418;2022-10-17T04:52:45;16.80;99.90
40756;DHT22;26461;45.630;9.418;2022-10-17T04:55:55;16.80;99.90
40756;DHT22;26461;45.630;9.418;2022-10-17T04:59:05;16.80;99.90
40756;DHT22;26461;45.630;9.418;2022-10-17T05:02:17;16.80;99.90
40756;DHT22;26461;45.630;9.418;2022-10-17T05:05:28;16.80;99.90
40756;DHT22;26461;45.630;9.418;2022-10-17T05:08:39;16.80;99.90
40756;DHT22;26461;45.630;9.418;2022-10-17T05:11:49;16.80;99.90
40756;DHT22;26461;45.630;9.418;2022-10-17T05:14:55;16.80;99.90
40756;DHT22;26461;45.630;9.418;2022-10-17T05:18:04;16.80;99.90
40756;DHT22;26461;45.630;9.418;2022-10-17T05:21:14;16.80;99.90
40756;DHT22;26461;45.630;9.418;2022-10-17T05:24:24;16.70;99.90
40756;DHT22;26461;45.630;9.418;2022-10-17T05:27:35;16.70;99.90
40756;DHT22;26461;45.630;9.418;2022-10-17T05:30:45;16.70;99.90
40756;DHT22;26461;45.630;9.418;2022-10-17T05:33:59;16.70;99.90
40756;DHT22;26461;45.630;9.418;2022-10-17T05:37:11;16.70;99.90
40756;DHT22;26461;45.630;9.418;2022-10-17T05:40:26;16.70;99.90
40756;DHT22;26461;45.630;9.418;2022-10-17T05:43:36;16.70;99.90
40756;DHT22;26461;45.630;9.418;2022-10-17T05:46:48;16.70;99.90
40756;DHT22;26461;45.630;9.418;2022-10-17T05:49:58;16.60;99.90
40756;DHT22;26461;45.630;9.418;2022-10-17T05:53:21;16.60;99.90
40756;DHT22;26461;45.630;9.418;2022-10-17T05:56:50;16.60;99.90
40756;DHT22;26461;45.630;9.418;2022-10-17T06:00:13;16.60;99.90
40756;DHT22;26461;45.630;9.418;2022-10-17T06:03:32;16.50;99.90
40756;DHT22;26461;45.630;9.418;2022-10-17T06:06:43;16.50;99.90
40756;DHT22;26461;45.630;9.418;2022-10-17T06:09:48;16.50;99.90
40756;DHT22;26461;45.630;9.418;2022-10-17T06:13:00;16.50;99.90
40756;DHT22;26461;45.630;9.418;2022-10-17T06:16:11;16.50;99.90
40756;DHT22;26461;45.630;9.418;2022-10-17T06:19:16;16.50;99.90
40756;DHT22;26461;45.630;9.418;2022-10-17T06:22:27;16.50;99.90
40756;DHT22;26461;45.630;9.418;2022-10-17T06:25:38;16.60;99.90
40756;DHT22;26461;45.630;9.418;2022-10-17T06:28:49;16.70;99.90
40756;DHT22;26461;45.630;9.418;2022-10-17T06:31:55;16.80;99.90
40756;DHT22;26461;45.630;9.418;2022-10-17T06:35:06;16.80;99.90
40756;DHT22;26461;45.630;9.418;2022-10-17T06:38:18;16.80;99.90
40756;DHT22;26461;45.630;9.418;2022-10-17T06:41:30;16.80;99.90
40756;DHT22;26461;45.630;9.418;2022-10-17T06:44:42;16.80;99.90
40756;DHT22;26461;45.630;9.418;2022-10-17T06:48:00;16.90;99.90
40756;DHT22;26461;45.630;9.418;2022-10-17T06:51:19;16.90;99.90
40756;DHT22;26461;45.630;9.418;2022-10-17T06:54:32;16.90;99.90
40756;DHT22;26461;45.630;9.418;2022-10-17T06:58:02;16.90;99.90
40756;DHT22;26461;45.630;9.418;2022-10-17T07:01:22;16.90;99.90
40756;DHT22;26461;45.630;9.418;2022-10-17T07:04:34;16.90;99.90
40756;DHT22;26461;45.630;9.418;2022-10-17T07:07:45;16.90;99.90
40756;DHT22;26461;45.630;9.418;2022-10-17T07:10:55;16.90;99.90
40756;DHT22;26461;45.630;9.418;2022-10-17T07:14:05;16.90;99.90
40756;DHT22;26461;45.630;9.418;2022-10-17T07:17:16;16.90;99.90
40756;DHT22;26461;45.630;9.418;2022-10-17T07:20:23;17.00;99.90
40756;DHT22;26461;45.630;9.418;2022-10-17T07:23:33;17.00;99.90
40756;DHT22;26461;45.630;9.418;2022-10-17T07:26:46;17.00;99.90
40756;DHT22;26461;45.630;9.418;2022-10-17T07:29:57;17.00;99.90
40756;DHT22;26461;45.630;9.418;2022-10-17T07:33:13;17.10;99.90
40756;DHT22;26461;45.630;9.418;2022-10-17T07:36:23;17.10;99.90
40756;DHT22;26461;45.630;9.418;2022-10-17T07:39:34;17.20;99.90
40756;DHT22;26461;45.630;9.418;2022-10-17T07:42:44;17.20;99.90
40756;DHT22;26461;45.630;9.418;2022-10-17T07:45:55;17.20;99.90
40756;DHT22;26461;45.630;9.418;2022-10-17T07:49:07;17.30;99.90
40756;DHT22;26461;45.630;9.418;2022-10-17T07:52:17;17.30;99.90
40756;DHT22;26461;45.630;9.418;2022-10-17T07:55:27;17.30;99.90
40756;DHT22;26461;45.630;9.418;2022-10-17T07:58:37;17.40;99.90
40756;DHT22;26461;45.630;9.418;2022-10-17T08:01:47;17.40;99.90
40756;DHT22;26461;45.630;9.418;2022-10-17T08:04:57;17.50;99.90
40756;DHT22;26461;45.630;9.418;2022-10-17T08:08:07;17.60;99.90
40756;DHT22;26461;45.630;9.418;2022-10-17T08:11:18;17.60;99.90
40756;DHT22;26461;45.630;9.418;2022-10-17T08:14:28;17.70;99.90
40756;DHT22;26461;45.630;9.418;2022-10-17T08:17:38;17.70;99.90
40756;DHT22;26461;45.630;9.418;2022-10-17T08:20:48;17.70;99.90
40756;DHT22;26461;45.630;9.418;2022-10-17T08:23:58;17.80;99.90
40756;DHT22;26461;45.630;9.418;2022-10-17T08:27:08;17.80;99.90
40756;DHT22;26461;45.630;9.418;2022-10-17T08:30:21;17.90;99.90
40756;DHT22;26461;45.630;9.418;2022-10-17T08:33:31;17.90;99.90
40756;DHT22;26461;45.630;9.418;2022-10-17T08:36:42;17.90;99.90
40756;DHT22;26461;45.630;9.418;2022-10-17T08:39:52;17.90;99.90
40756;DHT22;26461;45.630;9.418;2022-10-17T08:46:34;18.00;99.90
40756;DHT22;26461;45.630;9.418;2022-10-17T08:49:51;18.00;99.90
40756;DHT22;26461;45.630;9.418;2022-10-17T08:53:24;18.10;99.90
40756;DHT22;26461;45.630;9.418;2022-10-17T08:56:44;18.10;99.90
40756;DHT22;26461;45.630;9.418;2022-10-17T08:59:54;18.10;99.90
40756;DHT22;26461;45.630;9.418;2022-10-17T09:07:29;18.20;99.90
40756;DHT22;26461;45.630;9.418;2022-10-17T09:18:45;18.30;99.90
40756;DHT22;26461;45.630;9.418;2022-10-17T09:21:44;18.30;99.90
40756;DHT22;26461;45.630;9.418;2022-10-17T09:25:00;18.30;99.90
40756;DHT22;26461;45.630;9.418;2022-10-17T09:28:25;18.40;99.90
40756;DHT22;26461;45.630;9.418;2022-10-17T09:31:44;18.40;99.90
40756;DHT22;26461;45.630;9.418;2022-10-17T09:34:54;18.50;99.90
40756;DHT22;26461;45.630;9.418;2022-10-17T09:38:05;18.50;99.90
40756;DHT22;26461;45.630;9.418;2022-10-17T09:41:20;18.50;99.90
40756;DHT22;26461;45.630;9.418;2022-10-17T09:44:46;18.50;99.90
40756;DHT22;26461;45.630;9.418;2022-10-17T09:51:15;18.60;99.90
40756;DHT22;26461;45.630;9.418;2022-10-17T09:54:32;18.60;99.90
40756;DHT22;26461;45.630;9.418;2022-10-17T09:57:59;18.70;99.90
40756;DHT22;26461;45.630;9.418;2022-10-17T10:01:20;18.70;99.90
40756;DHT22;26461;45.630;9.418;2022-10-17T10:04:31;18.80;99.90
40756;DHT22;26461;45.630;9.418;2022-10-17T10:08:02;18.80;99.90
40756;DHT22;26461;45.630;9.418;2022-10-17T10:11:14;18.90;99.90
40756;DHT22;26461;45.630;9.418;2022-10-17T10:14:35;18.90;99.90
40756;DHT22;26461;45.630;9.418;2022-10-17T10:17:45;19.00;99.90
40756;DHT22;26461;45.630;9.418;2022-10-17T10:24:12;19.10;99.90
40756;DHT22;26461;45.630;9.418;2022-10-17T10:27:17;19.10;99.90
40756;DHT22;26461;45.630;9.418;2022-10-17T10:30:29;19.10;99.90
40756;DHT22;26461;45.630;9.418;2022-10-17T10:33:41;19.20;99.90
40756;DHT22;26461;45.630;9.418;2022-10-17T10:37:02;19.20;99.90
40756;DHT22;26461;45.630;9.418;2022-10-17T10:40:19;19.30;99.90
40756;DHT22;26461;45.630;9.418;2022-10-17T10:43:34;19.30;99.90
40756;DHT22;26461;45.630;9.418;2022-10-17T10:46:44;19.40;99.90
40756;DHT22;26461;45.630;9.418;2022-10-17T10:53:46;19.50;99.90
40756;DHT22;26461;45.630;9.418;2022-10-17T10:57:05;19.60;99.90
40756;DHT22;26461;45.630;9.418;2022-10-17T11:00:21;19.60;99.90
40756;DHT22;26461;45.630;9.418;2022-10-17T11:03:38;19.70;99.90
40756;DHT22;26461;45.630;9.418;2022-10-17T11:06:52;19.70;99.90
40756;DHT22;26461;45.630;9.418;2022-10-17T11:10:09;19.70;99.90
40756;DHT22;26461;45.630;9.418;2022-10-17T11:13:29;19.80;99.90
40756;DHT22;26461;45.630;9.418;2022-10-17T11:16:48;19.90;99.90
40756;DHT22;26461;45.630;9.418;2022-10-17T11:20:24;19.90;99.90
40756;DHT22;26461;45.630;9.418;2022-10-17T11:23:47;19.90;99.90
40756;DHT22;26461;45.630;9.418;2022-10-17T11:27:03;20.00;99.90
40756;DHT22;26461;45.630;9.418;2022-10-17T11:30:14;20.00;99.90
40756;DHT22;26461;45.630;9.418;2022-10-17T11:33:40;20.10;99.90
40756;DHT22;26461;45.630;9.418;2022-10-17T11:37:04;20.10;99.90
40756;DHT22;26461;45.630;9.418;2022-10-17T11:40:45;20.20;99.90
40756;DHT22;26461;45.630;9.418;2022-10-17T11:44:02;20.30;99.90
40756;DHT22;26461;45.630;9.418;2022-10-17T11:50:46;20.40;99.90
40756;DHT22;26461;45.630;9.418;2022-10-17T11:54:03;20.50;99.90
40756;DHT22;26461;45.630;9.418;2022-10-17T12:00:59;20.60;99.90
40756;DHT22;26461;45.630;9.418;2022-10-17T12:11:20;20.70;99.90
40756;DHT22;26461;45.630;9.418;2022-10-17T12:17:59;20.90;99.90
40756;DHT22;26461;45.630;9.418;2022-10-17T12:21:13;21.00;99.90
40756;DHT22;26461;45.630;9.418;2022-10-17T12:27:45;21.20;99.90
40756;DHT22;26461;45.630;9.418;2022-10-17T12:34:24;21.30;99.90
40756;DHT22;26461;45.630;9.418;2022-10-17T12:40:56;21.60;99.90
40756;DHT22;26461;45.630;9.418;2022-10-17T12:47:37;21.80;99.90
40756;DHT22;26461;45.630;9.418;2022-10-17T12:51:01;21.80;99.90
40756;DHT22;26461;45.630;9.418;2022-10-17T12:54:13;21.90;99.90
40756;DHT22;26461;45.630;9.418;2022-10-17T13:00:54;22.10;99.90
40756;DHT22;26461;45.630;9.418;2022-10-17T13:04:00;22.20;99.80
40756;DHT22;26461;45.630;9.418;2022-10-17T13:07:20;22.30;99.50
40756;DHT22;26461;45.630;9.418;2022-10-17T13:10:36;22.40;99.50
40756;DHT22;26461;45.630;9.418;2022-10-17T13:13:49;22.50;99.10
40756;DHT22;26461;45.630;9.418;2022-10-17T13:17:03;22.60;99.20
40756;DHT22;26461;45.630;9.418;2022-10-17T13:20:20;22.70;98.90
40756;DHT22;26461;45.630;9.418;2022-10-17T13:23:34;22.70;98.80
40756;DHT22;26461;45.630;9.418;2022-10-17T13:26:44;22.80;98.80
40756;DHT22;26461;45.630;9.418;2022-10-17T13:29:56;22.90;99.20
40756;DHT22;26461;45.630;9.418;2022-10-17T13:33:36;23.00;98.80
40756;DHT22;26461;45.630;9.418;2022-10-17T13:36:53;23.20;98.00
40756;DHT22;26461;45.630;9.418;2022-10-17T13:40:04;23.20;97.90
40756;DHT22;26461;45.630;9.418;2022-10-17T13:43:16;23.30;97.80
40756;DHT22;26461;45.630;9.418;2022-10-17T13:46:32;23.40;97.60
40756;DHT22;26461;45.630;9.418;2022-10-17T13:49:42;23.40;97.40
40756;DHT22;26461;45.630;9.418;2022-10-17T13:53:52;23.50;96.90
40756;DHT22;26461;45.630;9.418;2022-10-17T13:56:37;23.50;97.00
40756;DHT22;26461;45.630;9.418;2022-10-17T13:59:53;23.60;97.00
40756;DHT22;26461;45.630;9.418;2022-10-17T14:03:04;23.60;96.70
40756;DHT22;26461;45.630;9.418;2022-10-17T14:06:23;23.60;96.60
40756;DHT22;26461;45.630;9.418;2022-10-17T14:09:34;23.70;96.10
40756;DHT22;26461;45.630;9.418;2022-10-17T14:12:44;23.80;96.30
40756;DHT22;26461;45.630;9.418;2022-10-17T14:15:55;23.80;96.10
40756;DHT22;26461;45.630;9.418;2022-10-17T14:19:31;23.90;96.00
40756;DHT22;26461;45.630;9.418;2022-10-17T14:22:41;23.90;95.40
40756;DHT22;26461;45.630;9.418;2022-10-17T14:29:26;23.80;96.00
40756;DHT22;26461;45.630;9.418;2022-10-17T14:32:36;23.80;96.00
40756;DHT22;26461;45.630;9.418;2022-10-17T14:35:57;23.80;96.10
40756;DHT22;26461;45.630;9.418;2022-10-17T14:39:25;23.90;96.20
40756;DHT22;26461;45.630;9.418;2022-10-17T14:42:39;23.90;95.50
40756;DHT22;26461;45.630;9.418;2022-10-17T14:45:49;23.90;95.60
40756;DHT22;26461;45.630;9.418;2022-10-17T14:49:06;24.00;95.60
40756;DHT22;26461;45.630;9.418;2022-10-17T14:55:28;24.00;95.20
40756;DHT22;26461;45.630;9.418;2022-10-17T14:58:38;24.10;95.80
40756;DHT22;26461;45.630;9.418;2022-10-17T15:01:43;24.10;95.10
40756;DHT22;26461;45.630;9.418;2022-10-17T15:04:53;24.20;95.70
40756;DHT22;26461;45.630;9.418;2022-10-17T15:08:08;24.30;95.90
40756;DHT22;26461;45.630;9.418;2022-10-17T15:11:20;24.40;95.90
40756;DHT22;26461;45.630;9.418;2022-10-17T15:14:29;24.50;96.30
40756;DHT22;26461;45.630;9.418;2022-10-17T15:17:39;24.60;96.30
40756;DHT22;26461;45.630;9.418;2022-10-17T15:20:50;24.60;95.80
40756;DHT22;26461;45.630;9.418;2022-10-17T15:24:00;24.50;96.20
40756;DHT22;26461;45.630;9.418;2022-10-17T15:27:19;24.50;96.40
40756;DHT22;26461;45.630;9.418;2022-10-17T15:30:33;24.40;96.60
40756;DHT22;26461;45.630;9.418;2022-10-17T15:33:44;24.20;97.00
40756;DHT22;26461;45.630;9.418;2022-10-17T15:36:54;24.00;97.40
40756;DHT22;26461;45.630;9.418;2022-10-17T15:40:04;23.70;97.50
40756;DHT22;26461;45.630;9.418;2022-10-17T15:43:14;23.50;97.90
40756;DHT22;26461;45.630;9.418;2022-10-17T15:46:25;23.30;97.80
40756;DHT22;26461;45.630;9.418;2022-10-17T15:49:35;23.10;98.30
40756;DHT22;26461;45.630;9.418;2022-10-17T15:52:45;22.90;98.40
40756;DHT22;26461;45.630;9.418;2022-10-17T15:55:56;22.70;98.60
40756;DHT22;26461;45.630;9.418;2022-10-17T15:59:15;22.60;98.50
40756;DHT22;26461;45.630;9.418;2022-10-17T16:02:22;22.40;99.40
40756;DHT22;26461;45.630;9.418;2022-10-17T16:05:32;22.30;99.70
40756;DHT22;26461;45.630;9.418;2022-10-17T16:08:43;22.20;99.90
40756;DHT22;26461;45.630;9.418;2022-10-17T16:11:53;22.10;99.90
40756;DHT22;26461;45.630;9.418;2022-10-17T16:15:04;22.00;99.90
40756;DHT22;26461;45.630;9.418;2022-10-17T16:18:09;21.90;99.90
40756;DHT22;26461;45.630;9.418;2022-10-17T16:21:24;21.90;99.90
40756;DHT22;26461;45.630;9.418;2022-10-17T16:24:34;21.80;99.90
40756;DHT22;26461;45.630;9.418;2022-10-17T16:27:39;21.70;99.90
40756;DHT22;26461;45.630;9.418;2022-10-17T16:30:49;21.60;99.90
40756;DHT22;26461;45.630;9.418;2022-10-17T16:34:01;21.60;99.90
40756;DHT22;26461;45.630;9.418;2022-10-17T16:37:06;21.50;99.90
40756;DHT22;26461;45.630;9.418;2022-10-17T16:40:17;21.40;99.90
40756;DHT22;26461;45.630;9.418;2022-10-17T16:43:27;21.40;99.90
40756;DHT22;26461;45.630;9.418;2022-10-17T16:46:40;21.30;99.90
40756;DHT22;26461;45.630;9.418;2022-10-17T16:49:46;21.20;99.90
40756;DHT22;26461;45.630;9.418;2022-10-17T16:52:58;21.20;99.90
40756;DHT22;26461;45.630;9.418;2022-10-17T16:56:03;21.10;99.90
40756;DHT22;26461;45.630;9.418;2022-10-17T16:59:10;21.00;99.90
40756;DHT22;26461;45.630;9.418;2022-10-17T17:02:23;20.90;99.90
40756;DHT22;26461;45.630;9.418;2022-10-17T17:05:33;20.90;99.90
40756;DHT22;26461;45.630;9.418;2022-10-17T17:08:43;20.90;99.90
40756;DHT22;26461;45.630;9.418;2022-10-17T17:11:53;20.80;99.90
40756;DHT22;26461;45.630;9.418;2022-10-17T17:15:04;20.80;99.90
40756;DHT22;26461;45.630;9.418;2022-10-17T17:18:14;20.80;99.90
40756;DHT22;26461;45.630;9.418;2022-10-17T17:21:24;20.80;99.90
40756;DHT22;26461;45.630;9.418;2022-10-17T17:24:36;20.70;99.90
40756;DHT22;26461;45.630;9.418;2022-10-17T17:27:47;20.70;99.90
40756;DHT22;26461;45.630;9.418;2022-10-17T17:30:57;20.60;99.90
40756;DHT22;26461;45.630;9.418;2022-10-17T17:34:08;20.60;99.90
40756;DHT22;26461;45.630;9.418;2022-10-17T17:37:18;20.60;99.90
40756;DHT22;26461;45.630;9.418;2022-10-17T17:40:23;20.60;99.90
40756;DHT22;26461;45.630;9.418;2022-10-17T17:43:34;20.60;99.90
40756;DHT22;26461;45.630;9.418;2022-10-17T17:46:44;20.50;99.90
40756;DHT22;26461;45.630;9.418;2022-10-17T17:49:54;20.50;99.90
40756;DHT22;26461;45.630;9.418;2022-10-17T17:53:06;20.50;99.90
40756;DHT22;26461;45.630;9.418;2022-10-17T17:56:19;20.40;99.90
40756;DHT22;26461;45.630;9.418;2022-10-17T17:59:24;20.40;99.90
40756;DHT22;26461;45.630;9.418;2022-10-17T18:02:34;20.40;99.90
40756;DHT22;26461;45.630;9.418;2022-10-17T18:05:45;20.30;99.90
40756;DHT22;26461;45.630;9.418;2022-10-17T18:08:57;20.20;99.90
40756;DHT22;26461;45.630;9.418;2022-10-17T18:12:07;20.20;99.90
40756;DHT22;26461;45.630;9.418;2022-10-17T18:15:17;20.20;99.90
40756;DHT22;26461;45.630;9.418;2022-10-17T18:18:28;20.20;99.90
40756;DHT22;26461;45.630;9.418;2022-10-17T18:21:39;20.10;99.90
40756;DHT22;26461;45.630;9.418;2022-10-17T18:24:50;20.10;99.90
40756;DHT22;26461;45.630;9.418;2022-10-17T18:28:00;20.00;99.90
40756;DHT22;26461;45.630;9.418;2022-10-17T18:31:16;20.10;99.90
40756;DHT22;26461;45.630;9.418;2022-10-17T18:34:33;20.00;99.90
40756;DHT22;26461;45.630;9.418;2022-10-17T18:37:44;20.00;99.90
40756;DHT22;26461;45.630;9.418;2022-10-17T18:41:04;20.00;99.90
40756;DHT22;26461;45.630;9.418;2022-10-17T18:44:15;19.90;99.90
40756;DHT22;26461;45.630;9.418;2022-10-17T18:47:23;19.90;99.90
40756;DHT22;26461;45.630;9.418;2022-10-17T18:50:33;19.90;99.90
40756;DHT22;26461;45.630;9.418;2022-10-17T18:53:47;19.80;99.90
40756;DHT22;26461;45.630;9.418;2022-10-17T18:56:57;19.80;99.90
40756;DHT22;26461;45.630;9.418;2022-10-17T19:00:09;19.80;99.90
40756;DHT22;26461;45.630;9.418;2022-10-17T19:03:16;19.70;99.90
40756;DHT22;26461;45.630;9.418;2022-10-17T19:06:27;19.70;99.90
40756;DHT22;26461;45.630;9.418;2022-10-17T19:09:35;19.70;99.90
40756;DHT22;26461;45.630;9.418;2022-10-17T19:12:43;19.60;99.90
40756;DHT22;26461;45.630;9.418;2022-10-17T19:15:55;19.60;99.90
40756;DHT22;26461;45.630;9.418;2022-10-17T19:19:13;19.50;99.90
40756;DHT22;26461;45.630;9.418;2022-10-17T19:22:25;19.50;99.90
40756;DHT22;26461;45.630;9.418;2022-10-17T19:25:36;19.50;99.90
40756;DHT22;26461;45.630;9.418;2022-10-17T19:28:52;19.50;99.90
40756;DHT22;26461;45.630;9.418;2022-10-17T19:32:03;19.50;99.90
40756;DHT22;26461;45.630;9.418;2022-10-17T19:35:22;19.40;99.90
40756;DHT22;26461;45.630;9.418;2022-10-17T19:38:35;19.40;99.90
40756;DHT22;26461;45.630;9.418;2022-10-17T19:46:57;19.40;99.90
40756;DHT22;26461;45.630;9.418;2022-10-17T19:50:13;19.30;99.90
40756;DHT22;26461;45.630;9.418;2022-10-17T19:53:24;19.20;99.90
40756;DHT22;26461;45.630;9.418;2022-10-17T19:56:36;19.20;99.90
40756;DHT22;26461;45.630;9.418;2022-10-17T19:59:48;19.10;99.90
40756;DHT22;26461;45.630;9.418;2022-10-17T20:02:56;19.10;99.90
40756;DHT22;26461;45.630;9.418;2022-10-17T20:06:07;19.00;99.90
40756;DHT22;26461;45.630;9.418;2022-10-17T20:09:28;19.00;99.90
40756;DHT22;26461;45.630;9.418;2022-10-17T20:12:39;18.90;99.90
40756;DHT22;26461;45.630;9.418;2022-10-17T20:15:53;18.90;99.90
40756;DHT22;26461;45.630;9.418;2022-10-17T20:19:09;18.90;99.90
40756;DHT22;26461;45.630;9.418;2022-10-17T20:22:29;18.80;99.90
40756;DHT22;26461;45.630;9.418;2022-10-17T20:25:44;18.80;99.90
40756;DHT22;26461;45.630;9.418;2022-10-17T20:29:13;18.80;99.90
40756;DHT22;26461;45.630;9.418;2022-10-17T20:32:23;18.70;99.90
40756;DHT22;26461;45.630;9.418;2022-10-17T20:35:41;18.70;99.90
40756;DHT22;26461;45.630;9.418;2022-10-17T20:38:46;18.70;99.90
40756;DHT22;26461;45.630;9.418;2022-10-17T20:41:58;18.60;99.90
40756;DHT22;26461;45.630;9.418;2022-10-17T20:45:10;18.60;99.90
40756;DHT22;26461;45.630;9.418;2022-10-17T20:48:20;18.60;99.90
40756;DHT22;26461;45.630;9.418;2022-10-17T20:51:25;18.60;99.90
40756;DHT22;26461;45.630;9.418;2022-10-17T20:54:36;18.60;99.90
40756;DHT22;26461;45.630;9.418;2022-10-17T20:57:46;18.60;99.90
40756;DHT22;26461;45.630;9.418;2022-10-17T21:00:56;18.60;99.90
40756;DHT22;26461;45.630;9.418;2022-10-17T21:04:06;18.60;99.90
40756;DHT22;26461;45.630;9.418;2022-10-17T21:07:18;18.60;99.90
40756;DHT22;26461;45.630;9.418;2022-10-17T21:10:28;18.60;99.90
40756;DHT22;26461;45.630;9.418;2022-10-17T21:13:38;18.60;99.90
40756;DHT22;26461;45.630;9.418;2022-10-17T21:16:48;18.60;99.90
40756;DHT22;26461;45.630;9.418;2022-10-17T21:20:02;18.60;99.90
40756;DHT22;26461;45.630;9.418;2022-10-17T21:23:12;18.60;99.90
40756;DHT22;26461;45.630;9.418;2022-10-17T21:26:23;18.60;99.90
40756;DHT22;26461;45.630;9.418;2022-10-17T21:29:32;18.50;99.90
40756;DHT22;26461;45.630;9.418;2022-10-17T21:32:42;18.50;99.90
40756;DHT22;26461;45.630;9.418;2022-10-17T21:35:54;18.50;99.90
40756;DHT22;26461;45.630;9.418;2022-10-17T21:39:04;18.50;99.90
40756;DHT22;26461;45.630;9.418;2022-10-17T21:42:09;18.40;99.90
40756;DHT22;26461;45.630;9.418;2022-10-17T21:45:14;18.40;99.90
40756;DHT22;26461;45.630;9.418;2022-10-17T21:48:29;18.30;99.90
40756;DHT22;26461;45.630;9.418;2022-10-17T21:51:40;18.30;99.90
40756;DHT22;26461;45.630;9.418;2022-10-17T21:54:50;18.30;99.90
40756;DHT22;26461;45.630;9.418;2022-10-17T21:58:00;18.30;99.90
40756;DHT22;26461;45.630;9.418;2022-10-17T22:04:24;18.30;99.90
40756;DHT22;26461;45.630;9.418;2022-10-17T22:07:34;18.20;99.90
40756;DHT22;26461;45.630;9.418;2022-10-17T22:10:39;18.20;99.90